Time;durP1;ratioP1;P1;durP2;ratioP2;P2;SDS_P1;SDS_P2;PMS_P1;PMS_P2;Temp;Humidity;BMP_temperature;BMP_pressure;BME280_temperature;BME280_humidity;BME280_pressure;Samples;Min_cycle;Max_cycle;Signal;HPM_P1;HPM_P2
2023/12/04 00:01:26;;;;;;;0.40;0.40;;;;;;;9.33;58.53;101435.63;5061470;28;20041;-62
2023/12/04 00:03:51;;;;;;;0.30;0.30;;;;;;;9.57;57.17;101427.03;5049129;28;20545;-62
2023/12/04 00:06:17;;;;;;;0.30;0.30;;;;;;;9.49;57.29;101436.06;5060438;28;20323;-63
2023/12/04 00:08:42;;;;;;;0.57;0.57;;;;;;;10.02;55.53;101418.19;5069255;28;20412;-62
2023/12/04 00:11:07;;;;;;;0.38;0.38;;;;;;;8.38;59.64;101424.91;5069137;28;20086;-62
2023/12/04 00:13:33;;;;;;;0.30;0.30;;;;;;;9.42;57.34;101413.78;5069060;28;20489;-61
2023/12/04 00:15:59;;;;;;;0.55;0.55;;;;;;;9.27;57.23;101421.19;5068938;28;20032;-62
2023/12/04 00:18:24;;;;;;;0.50;0.50;;;;;;;8.83;59.48;101418.13;5069854;28;20041;-63
2023/12/04 00:20:49;;;;;;;0.40;0.40;;;;;;;8.75;59.63;101418.28;5073472;28;20039;-63
2023/12/04 00:23:15;;;;;;;0.47;0.47;;;;;;;9.64;56.41;101420.63;5072983;28;20044;-63
2023/12/04 00:25:40;;;;;;;0.40;0.40;;;;;;;9.33;56.85;101411.50;5073040;28;20056;-63
2023/12/04 00:28:11;;;;;;;0.47;0.47;;;;;;;9.37;57.35;101408.22;5073000;28;20530;-62
2023/12/04 00:30:36;;;;;;;0.40;0.40;;;;;;;9.61;55.98;101404.94;5072942;28;20440;-62
2023/12/04 00:33:01;;;;;;;0.40;0.40;;;;;;;9.94;54.72;101399.59;5073576;28;20031;-62
2023/12/04 00:35:27;;;;;;;0.52;0.52;;;;;;;8.81;57.65;101404.09;5072935;28;20465;-63
2023/12/04 00:37:52;;;;;;;0.40;0.40;;;;;;;9.28;57.35;101408.59;5072648;28;20169;-62
2023/12/04 00:40:17;;;;;;;0.40;0.40;;;;;;;9.53;56.37;101397.06;5072724;28;20057;-61
2023/12/04 00:42:43;;;;;;;0.40;0.40;;;;;;;9.05;58.03;101400.06;5072748;28;20108;-62
2023/12/04 00:45:09;;;;;;;0.30;0.30;;;;;;;9.07;58.03;101403.38;5072388;28;20107;-63
2023/12/04 00:47:34;;;;;;;0.50;0.50;;;;;;;9.07;58.16;101395.34;5072919;28;20357;-62
2023/12/04 00:49:59;;;;;;;0.50;0.50;;;;;;;8.52;60.44;101396.34;5072181;28;20124;-62
2023/12/04 00:52:25;;;;;;;0.40;0.40;;;;;;;8.71;59.84;101383.03;5072698;28;20116;-62
2023/12/04 00:54:50;;;;;;;0.40;0.40;;;;;;;9.49;58.00;101389.66;5072272;28;20032;-62
2023/12/04 00:57:15;;;;;;;0.30;0.30;;;;;;;9.54;57.00;101379.97;5072151;28;20035;-62
2023/12/04 00:59:41;;;;;;;0.50;0.50;;;;;;;9.20;58.67;101384.66;5072431;28;20024;-61
2023/12/04 01:02:07;;;;;;;0.40;0.40;;;;;;;9.80;55.33;101378.31;5071880;28;20037;-62
2023/12/04 01:04:33;;;;;;;0.30;0.30;;;;;;;8.95;57.67;101379.00;5068816;28;20036;-63
2023/12/04 01:06:58;;;;;;;0.35;0.35;;;;;;;9.05;58.11;101375.94;5070400;28;20048;-62
2023/12/04 01:09:24;;;;;;;0.60;0.60;;;;;;;9.29;56.21;101370.84;5072354;28;20149;-62
2023/12/04 01:11:52;;;;;;;0.40;0.40;;;;;;;9.04;58.82;101374.31;5072598;28;20021;-64
2023/12/04 01:14:18;;;;;;;0.50;0.50;;;;;;;9.24;56.86;101364.44;5071948;28;20044;-62
2023/12/04 01:16:43;;;;;;;0.40;0.40;;;;;;;9.14;58.02;101367.50;5072165;28;20041;-62
2023/12/04 01:19:08;;;;;;;0.30;0.30;;;;;;;8.68;59.98;101372.75;5072036;28;20649;-61
2023/12/04 01:21:34;;;;;;;0.40;0.40;;;;;;;9.30;56.53;101360.94;5071984;28;20028;-61
2023/12/04 01:23:59;;;;;;;0.40;0.40;;;;;;;9.56;55.42;101369.03;5072514;28;20020;-62
2023/12/04 01:26:24;;;;;;;0.50;0.50;;;;;;;9.30;56.73;101359.09;5071741;28;20037;-61
2023/12/04 01:28:50;;;;;;;0.40;0.40;;;;;;;9.58;56.39;101349.00;5071777;28;20072;-62
2023/12/04 01:31:15;;;;;;;0.50;0.50;;;;;;;9.02;57.61;101350.34;5071870;28;20059;-62
2023/12/04 01:33:40;;;;;;;0.40;0.40;;;;;;;9.51;56.37;101348.16;5072105;28;20056;-61
2023/12/04 01:36:06;;;;;;;0.40;0.40;;;;;;;9.30;56.33;101364.44;5071791;28;20048;-62
2023/12/04 01:38:31;;;;;;;0.50;0.50;;;;;;;8.87;57.76;101357.75;5071779;28;20074;-62
2023/12/04 01:40:57;;;;;;;0.57;0.57;;;;;;;9.10;57.84;101352.06;5071411;28;20523;-61
2023/12/04 01:43:22;;;;;;;0.40;0.40;;;;;;;9.11;56.41;101340.28;5071371;28;20039;-63
2023/12/04 01:45:49;;;;;;;0.50;0.50;;;;;;;9.79;54.97;101331.84;5069802;28;20536;-62
2023/12/04 01:48:15;;;;;;;0.30;0.30;;;;;;;9.86;54.63;101332.69;5056830;28;20080;-61
2023/12/04 01:50:40;;;;;;;0.30;0.30;;;;;;;9.06;56.60;101332.03;5061743;28;20107;-63
2023/12/04 01:53:06;;;;;;;0.40;0.40;;;;;;;9.27;56.49;101331.84;5071241;28;20500;-62
2023/12/04 01:55:32;;;;;;;0.30;0.30;;;;;;;9.31;56.05;101317.84;5071341;28;20047;-62
2023/12/04 01:57:59;;;;;;;0.30;0.30;;;;;;;8.31;59.13;101318.78;5071108;28;20057;-62
2023/12/04 02:00:25;;;;;;;0.50;0.50;;;;;;;9.02;57.76;101312.84;5070894;28;20049;-62
2023/12/04 02:02:50;;;;;;;0.40;0.40;;;;;;;9.02;58.22;101320.06;5052632;28;20025;-62
2023/12/04 02:05:16;;;;;;;0.40;0.40;;;;;;;8.50;58.68;101339.47;5055063;28;20036;-62
2023/12/04 02:07:43;;;;;;;0.40;0.40;;;;;;;8.92;57.42;101330.34;5071162;28;20139;-63
2023/12/04 02:10:08;;;;;;;0.40;0.40;;;;;;;9.49;55.40;101323.41;5071067;28;20032;-62
2023/12/04 02:12:34;;;;;;;0.40;0.40;;;;;;;9.06;56.78;101324.81;5071057;28;20063;-62
2023/12/04 02:15:00;;;;;;;0.50;0.50;;;;;;;9.83;54.71;101321.56;5070993;28;20040;-63
2023/12/04 02:17:26;;;;;;;0.50;0.50;;;;;;;9.67;55.12;101317.41;5070992;28;20459;-62
2023/12/04 02:19:52;;;;;;;0.47;0.47;;;;;;;8.87;56.51;101312.19;5070928;28;20029;-63
2023/12/04 02:22:18;;;;;;;0.45;0.45;;;;;;;9.81;54.42;101307.53;5069185;28;20079;-63
2023/12/04 02:24:45;;;;;;;0.32;0.32;;;;;;;8.92;57.61;101306.22;5070767;28;20097;-63
2023/12/04 02:27:14;;;;;;;0.40;0.40;;;;;;;9.19;56.71;101295.34;5071024;28;20033;-63
2023/12/04 02:29:51;;;;;;;0.30;0.30;;;;;;;9.36;56.23;101301.13;5070936;28;20081;-63
2023/12/04 02:32:20;;;;;;;0.30;0.30;;;;;;;9.89;54.34;101291.16;5069246;28;20102;-62
2023/12/04 02:34:48;;;;;;;0.40;0.40;;;;;;;9.26;56.00;101288.13;5070449;28;20072;-63
2023/12/04 02:37:14;;;;;;;0.32;0.32;;;;;;;9.90;54.06;101290.97;5070549;28;20094;-62
2023/12/04 02:39:40;;;;;;;0.30;0.30;;;;;;;9.65;54.13;101288.09;5069968;28;20056;-62
2023/12/04 02:42:06;;;;;;;0.40;0.40;;;;;;;10.17;52.61;101289.06;5069894;28;20035;-62
2023/12/04 02:44:31;;;;;;;0.40;0.40;;;;;;;10.14;53.21;101287.63;5070192;28;20082;-62
2023/12/04 02:46:57;;;;;;;0.40;0.40;;;;;;;9.79;53.98;101277.38;5070048;28;20115;-61
2023/12/04 02:49:22;;;;;;;0.30;0.30;;;;;;;10.00;53.70;101282.50;5070265;28;20131;-62
2023/12/04 02:51:47;;;;;;;0.40;0.40;;;;;;;10.35;52.72;101275.78;5070140;28;20196;-63
2023/12/04 02:54:13;;;;;;;0.40;0.40;;;;;;;10.13;52.26;101277.94;5070060;28;20067;-61
2023/12/04 02:56:38;;;;;;;0.43;0.43;;;;;;;10.10;53.08;101272.16;5070880;28;20100;-64
2023/12/04 02:59:03;;;;;;;0.30;0.30;;;;;;;9.56;54.01;101270.59;5069852;28;20372;-64
2023/12/04 03:01:29;;;;;;;0.40;0.40;;;;;;;10.01;53.06;101255.41;5069638;28;20226;-63
2023/12/04 03:03:54;;;;;;;0.30;0.30;;;;;;;9.30;54.29;101259.03;5069921;28;20085;-63
2023/12/04 03:06:19;;;;;;;0.45;0.45;;;;;;;9.45;54.56;101259.66;5069582;28;20115;-63
2023/12/04 03:08:45;;;;;;;0.32;0.32;;;;;;;9.73;53.86;101249.50;5070084;28;20115;-63
2023/12/04 03:11:10;;;;;;;0.40;0.40;;;;;;;9.40;54.65;101241.50;5069732;28;20037;-63
2023/12/04 03:13:35;;;;;;;0.40;0.40;;;;;;;9.52;54.87;101241.69;5069685;28;20041;-61
2023/12/04 03:16:01;;;;;;;0.40;0.40;;;;;;;9.57;54.46;101236.53;5069492;28;20040;-62
2023/12/04 03:18:28;;;;;;;0.40;0.40;;;;;;;9.60;54.07;101230.75;5069713;28;20056;-63
2023/12/04 03:20:54;;;;;;;0.38;0.38;;;;;;;8.90;55.85;101226.03;5070054;28;20108;-63
2023/12/04 03:23:19;;;;;;;0.40;0.40;;;;;;;10.01;53.00;101217.84;5069423;28;20274;-63
2023/12/04 03:25:44;;;;;;;0.30;0.30;;;;;;;9.34;54.36;101223.56;5069520;28;20071;-64
2023/12/04 03:28:10;;;;;;;0.63;0.63;;;;;;;9.83;53.32;101212.31;5069540;28;20071;-62
2023/12/04 03:30:35;;;;;;;0.50;0.50;;;;;;;10.14;52.47;101225.06;5069123;28;20040;-63
2023/12/04 03:33:01;;;;;;;0.40;0.40;;;;;;;9.55;53.38;101217.16;5069631;28;20071;-62
2023/12/04 03:35:26;;;;;;;0.47;0.47;;;;;;;9.93;52.93;101207.31;5069195;28;20032;-61
2023/12/04 03:37:52;;;;;;;0.30;0.30;;;;;;;9.37;53.74;101207.06;5067494;28;20036;-62
2023/12/04 03:40:17;;;;;;;0.40;0.40;;;;;;;9.80;53.81;101210.06;5068743;28;20358;-62
2023/12/04 03:42:43;;;;;;;0.40;0.40;;;;;;;9.30;55.31;101200.88;5069213;28;20408;-61
2023/12/04 03:45:09;;;;;;;0.40;0.40;;;;;;;9.23;54.37;101199.22;5069117;28;20388;-63
2023/12/04 03:47:34;;;;;;;0.50;0.50;;;;;;;9.36;54.37;101205.41;5069961;28;20077;-62
2023/12/04 03:49:59;;;;;;;0.30;0.30;;;;;;;9.62;53.29;101201.84;5069058;28;20034;-63
2023/12/04 03:52:25;;;;;;;0.52;0.52;;;;;;;9.83;52.69;101200.78;5068713;28;20463;-62
2023/12/04 03:54:50;;;;;;;0.40;0.40;;;;;;;10.12;51.92;101208.34;5068697;28;20115;-63
2023/12/04 03:57:15;;;;;;;0.40;0.40;;;;;;;9.86;52.63;101194.97;5067761;28;20032;-62
2023/12/04 03:59:41;;;;;;;0.38;0.38;;;;;;;9.86;52.42;101193.13;5069218;28;20021;-63
2023/12/04 04:02:06;;;;;;;0.50;0.50;;;;;;;9.69;52.22;101182.00;5055822;28;20044;-62
2023/12/04 04:04:32;;;;;;;0.35;0.35;;;;;;;9.78;52.38;101185.28;5048940;28;20565;-63
2023/12/04 04:06:57;;;;;;;0.50;0.50;;;;;;;8.95;54.36;101179.84;5067270;28;20044;-62
2023/12/04 04:09:22;;;;;;;0.20;0.20;;;;;;;9.24;53.99;101180.25;5068970;28;20026;-63
2023/12/04 04:11:48;;;;;;;0.35;0.35;;;;;;;9.36;52.76;101178.59;5069658;28;20028;-60
2023/12/04 04:14:13;;;;;;;0.40;0.40;;;;;;;9.92;52.51;101181.53;5068904;28;20445;-62
2023/12/04 04:16:40;;;;;;;0.40;0.40;;;;;;;9.73;52.59;101180.56;5068782;28;20043;-63
2023/12/04 04:19:06;;;;;;;0.70;0.70;;;;;;;9.97;51.63;101173.66;5068825;28;20043;-62
2023/12/04 04:21:31;;;;;;;0.50;0.50;;;;;;;9.51;52.99;101171.13;5068851;28;20045;-63
2023/12/04 04:23:56;;;;;;;0.40;0.40;;;;;;;9.43;52.93;101167.84;5069400;28;20063;-62
2023/12/04 04:26:22;;;;;;;0.40;0.40;;;;;;;9.48;53.11;101168.03;5068742;28;20039;-62
2023/12/04 04:28:47;;;;;;;0.50;0.50;;;;;;;9.22;54.05;101168.09;5068716;28;20397;-63
2023/12/04 04:31:12;;;;;;;0.50;0.50;;;;;;;9.32;53.99;101163.09;5068757;28;20040;-62
2023/12/04 04:33:38;;;;;;;0.52;0.52;;;;;;;9.83;52.05;101158.63;5068770;28;20119;-62
2023/12/04 04:36:04;;;;;;;0.40;0.40;;;;;;;9.95;51.85;101153.41;5069438;28;20028;-62
2023/12/04 04:38:29;;;;;;;0.50;0.50;;;;;;;10.19;50.73;101147.34;5068434;28;20076;-62
2023/12/04 04:40:55;;;;;;;0.38;0.38;;;;;;;10.29;50.54;101153.06;5068418;28;20135;-63
2023/12/04 04:43:20;;;;;;;0.45;0.45;;;;;;;9.98;51.42;101144.97;5068686;28;20082;-63
2023/12/04 04:45:45;;;;;;;0.30;0.30;;;;;;;9.27;53.85;101147.66;5068656;28;20039;-64
2023/12/04 04:48:11;;;;;;;0.40;0.40;;;;;;;9.64;52.67;101143.44;5068871;28;20028;-63
2023/12/04 04:50:36;;;;;;;0.40;0.40;;;;;;;10.01;51.18;101134.59;5068967;28;20512;-62
2023/12/04 04:53:01;;;;;;;0.35;0.35;;;;;;;9.50;52.18;101139.13;5067029;28;20064;-62
2023/12/04 04:55:27;;;;;;;0.50;0.50;;;;;;;9.68;52.01;101140.13;5068558;28;20058;-61
2023/12/04 04:57:52;;;;;;;0.32;0.32;;;;;;;9.32;52.54;101134.44;5068307;28;20056;-62
2023/12/04 05:00:18;;;;;;;0.40;0.40;;;;;;;9.60;52.79;101131.47;5068571;28;20117;-63
2023/12/04 05:02:43;;;;;;;0.38;0.38;;;;;;;9.69;51.84;101114.94;5066059;28;20499;-62
2023/12/04 05:05:08;;;;;;;0.40;0.40;;;;;;;9.89;51.39;101111.31;5068292;28;20024;-62
2023/12/04 05:07:34;;;;;;;0.30;0.30;;;;;;;9.42;51.99;101118.75;5058686;28;20550;-62
2023/12/04 05:09:59;;;;;;;0.50;0.50;;;;;;;8.60;55.24;101110.41;5070019;28;20119;-62
2023/12/04 05:12:25;;;;;;;0.40;0.40;;;;;;;9.32;53.20;101121.03;5071541;28;20087;-61
2023/12/04 05:14:50;;;;;;;0.35;0.35;;;;;;;8.91;54.10;101112.44;5072130;28;20033;-63
2023/12/04 05:17:15;;;;;;;0.40;0.40;;;;;;;9.33;53.09;101108.44;5071842;28;20688;-63
2023/12/04 05:19:41;;;;;;;0.40;0.40;;;;;;;9.87;51.99;101100.00;5071054;28;20550;-62
2023/12/04 05:22:08;;;;;;;0.40;0.40;;;;;;;9.48;52.31;101107.16;5071992;28;20067;-62
2023/12/04 05:24:33;;;;;;;0.30;0.30;;;;;;;9.28;53.07;101106.41;5072380;28;20675;-63
2023/12/04 05:26:58;;;;;;;0.45;0.45;;;;;;;9.50;52.14;101105.09;5072318;28;20111;-62
2023/12/04 05:29:24;;;;;;;0.43;0.43;;;;;;;9.71;51.88;101099.44;5056798;28;20036;-62
2023/12/04 05:31:49;;;;;;;0.68;0.68;;;;;;;8.99;53.87;101101.50;5053915;28;20124;-62
2023/12/04 05:34:14;;;;;;;0.30;0.30;;;;;;;9.48;52.70;101100.97;5071740;28;20045;-62
2023/12/04 05:36:40;;;;;;;0.40;0.40;;;;;;;9.36;53.06;101092.75;5071356;28;20036;-62
2023/12/04 05:39:05;;;;;;;0.50;0.50;;;;;;;9.58;52.00;101091.44;5071408;28;20127;-63
2023/12/04 05:41:30;;;;;;;0.38;0.38;;;;;;;9.44;51.85;101094.38;5072321;28;20175;-60
2023/12/04 05:43:56;;;;;;;0.50;0.50;;;;;;;9.17;53.16;101098.16;5070843;28;20040;-62
2023/12/04 05:46:22;;;;;;;0.43;0.43;;;;;;;9.21;53.14;101094.03;5065262;28;20048;-63
2023/12/04 05:48:48;;;;;;;0.40;0.40;;;;;;;9.35;52.67;101088.44;5070865;28;20032;-63
2023/12/04 05:51:14;;;;;;;0.30;0.30;;;;;;;9.36;52.18;101086.56;5070973;28;20494;-63
2023/12/04 05:53:39;;;;;;;0.50;0.50;;;;;;;9.15;53.63;101090.34;5071219;28;20082;-62
2023/12/04 05:56:06;;;;;;;0.30;0.30;;;;;;;9.05;53.35;101084.59;5070797;28;20510;-64
2023/12/04 05:58:31;;;;;;;0.30;0.30;;;;;;;9.46;52.46;101079.72;5070697;28;20035;-62
2023/12/04 06:00:57;;;;;;;0.50;0.50;;;;;;;9.01;51.80;101080.69;5070076;28;20037;-63
2023/12/04 06:03:22;;;;;;;0.57;0.57;;;;;;;8.96;52.84;101066.25;5070466;28;20024;-63
2023/12/04 06:05:47;;;;;;;0.47;0.47;;;;;;;8.55;54.15;101079.91;5070078;28;20027;-64
2023/12/04 06:08:13;;;;;;;0.40;0.40;;;;;;;8.68;54.91;101071.84;5070500;28;20185;-63
2023/12/04 06:10:38;;;;;;;0.40;0.40;;;;;;;9.20;52.88;101073.63;5068526;28;20064;-63
2023/12/04 06:13:03;;;;;;;0.32;0.32;;;;;;;9.26;52.34;101073.59;5070866;28;20110;-62
2023/12/04 06:15:29;;;;;;;0.50;0.50;;;;;;;8.82;53.70;101070.81;5070474;28;20033;-62
2023/12/04 06:17:54;;;;;;;0.60;0.60;;;;;;;8.68;53.89;101072.69;5070626;28;20127;-62
2023/12/04 06:20:19;;;;;;;0.30;0.30;;;;;;;9.27;52.57;101063.72;5071030;28;20036;-62
2023/12/04 06:22:45;;;;;;;0.32;0.32;;;;;;;9.17;52.21;101063.31;5070537;28;20606;-63
2023/12/04 06:25:11;;;;;;;0.40;0.40;;;;;;;8.69;52.71;101058.25;5057963;28;20546;-63
2023/12/04 06:27:38;;;;;;;0.40;0.40;;;;;;;9.20;51.58;101055.66;5050973;28;20136;-62
2023/12/04 06:30:05;;;;;;;0.43;0.43;;;;;;;8.99;52.45;101050.59;5070184;28;20388;-65
2023/12/04 06:32:31;;;;;;;0.40;0.40;;;;;;;9.78;49.83;101053.78;5070314;28;20035;-62
2023/12/04 06:34:56;;;;;;;0.40;0.40;;;;;;;9.66;50.35;101052.81;5067789;28;20040;-63
2023/12/04 06:37:22;;;;;;;0.40;0.40;;;;;;;8.84;52.28;101050.00;5050451;28;20485;-63
2023/12/04 06:39:48;;;;;;;0.47;0.47;;;;;;;8.88;52.41;101046.69;5050309;28;20087;-63
2023/12/04 06:42:14;;;;;;;0.40;0.40;;;;;;;9.64;50.18;101038.78;5050629;28;20561;-63
2023/12/04 06:44:40;;;;;;;0.45;0.45;;;;;;;9.38;51.00;101028.19;5050807;28;20045;-61
2023/12/04 06:47:07;;;;;;;0.40;0.40;;;;;;;9.67;50.65;101038.34;5050200;28;20350;-64
2023/12/04 06:49:33;;;;;;;0.50;0.50;;;;;;;8.92;52.19;101027.50;5050255;28;20028;-63
2023/12/04 06:51:59;;;;;;;0.40;0.40;;;;;;;9.10;50.77;101027.69;5050426;28;20087;-64
2023/12/04 06:54:24;;;;;;;0.50;0.50;;;;;;;9.38;51.29;101020.13;5068134;28;20439;-64
2023/12/04 06:56:50;;;;;;;0.40;0.40;;;;;;;9.53;50.02;101026.06;5070516;28;20033;-62
2023/12/04 06:59:17;;;;;;;0.30;0.30;;;;;;;9.29;50.64;101019.56;5069991;28;20095;-61
2023/12/04 07:01:43;;;;;;;0.30;0.30;;;;;;;9.28;50.85;101017.91;5059724;28;20396;-62
2023/12/04 07:04:09;;;;;;;0.30;0.30;;;;;;;9.83;49.87;101015.59;5050158;28;20037;-62
2023/12/04 07:06:44;;;;;;;0.30;0.30;;;;;;;8.47;52.21;101008.59;5050043;28;20037;-61
2023/12/04 07:09:09;;;;;;;0.50;0.50;;;;;;;9.11;51.64;101007.88;5062665;28;20028;-62
2023/12/04 07:11:35;;;;;;;0.57;0.57;;;;;;;9.24;51.09;100997.91;5069549;28;20400;-63
2023/12/04 07:14:00;;;;;;;0.35;0.35;;;;;;;9.21;50.58;101003.72;5069629;28;20086;-62
2023/12/04 07:16:26;;;;;;;0.30;0.30;;;;;;;9.59;49.82;100998.38;5069694;28;20127;-63
2023/12/04 07:18:51;;;;;;;0.40;0.40;;;;;;;9.83;48.97;100997.59;5067970;28;20036;-63
2023/12/04 07:21:16;;;;;;;0.40;0.40;;;;;;;9.94;48.76;100986.19;5069198;28;20093;-63
2023/12/04 07:23:42;;;;;;;0.30;0.30;;;;;;;9.74;49.73;100998.91;5069940;28;20649;-63
2023/12/04 07:26:07;;;;;;;0.52;0.52;;;;;;;10.00;48.62;100992.53;5052035;28;20040;-61
2023/12/04 07:28:33;;;;;;;0.40;0.40;;;;;;;9.14;50.86;100988.69;5062179;28;20086;-62
2023/12/04 07:31:01;;;;;;;0.40;0.40;;;;;;;9.87;49.08;100987.28;5067086;28;20458;-62
2023/12/04 07:33:26;;;;;;;0.32;0.32;;;;;;;9.59;48.95;100979.59;5069371;28;20039;-61
2023/12/04 07:35:52;;;;;;;0.50;0.50;;;;;;;9.64;48.79;100985.97;5069593;28;20044;-63
2023/12/04 07:38:18;;;;;;;0.40;0.40;;;;;;;9.95;48.14;100982.44;5067193;28;20515;-62
2023/12/04 07:40:44;;;;;;;0.45;0.45;;;;;;;9.05;50.08;100979.22;5068637;28;20512;-62
2023/12/04 07:43:10;;;;;;;0.30;0.30;;;;;;;9.64;49.35;100979.78;5069126;28;20047;-61
2023/12/04 07:45:36;;;;;;;0.30;0.30;;;;;;;9.31;49.74;100982.63;5069596;28;20115;-62
2023/12/04 07:48:05;;;;;;;0.40;0.40;;;;;;;9.56;48.30;100975.47;5069299;28;20024;-62
2023/12/04 07:50:30;;;;;;;0.40;0.40;;;;;;;9.66;49.40;100973.16;5067856;28;20036;-62
2023/12/04 07:52:56;;;;;;;0.32;0.32;;;;;;;9.52;49.49;100970.75;5069168;28;20046;-62
2023/12/04 07:55:21;;;;;;;0.50;0.50;;;;;;;9.71;48.24;100962.59;5067846;28;20040;-62
2023/12/04 07:57:47;;;;;;;0.47;0.47;;;;;;;9.51;48.34;100964.56;5069061;28;20515;-61
2023/12/04 08:00:14;;;;;;;0.25;0.25;;;;;;;9.94;47.07;100966.56;5069303;28;20429;-63
2023/12/04 08:02:39;;;;;;;0.50;0.50;;;;;;;9.98;48.05;100959.72;5068843;28;20125;-63
2023/12/04 08:05:05;;;;;;;0.40;0.40;;;;;;;9.95;48.14;100966.34;5068986;28;20032;-62
2023/12/04 08:07:30;;;;;;;0.20;0.20;;;;;;;10.21;46.91;100963.50;5069007;28;20036;-60
2023/12/04 08:09:55;;;;;;;0.40;0.40;;;;;;;10.24;46.74;100952.28;5069171;28;20040;-65
2023/12/04 08:12:21;;;;;;;0.47;0.47;;;;;;;10.23;47.06;100944.47;5069164;28;20111;-64
2023/12/04 08:14:46;;;;;;;0.45;0.45;;;;;;;10.41;46.53;100947.19;5069361;28;20025;-63
2023/12/04 08:17:12;;;;;;;0.40;0.40;;;;;;;10.33;46.63;100955.53;5068944;28;20036;-61
2023/12/04 08:19:38;;;;;;;0.40;0.40;;;;;;;9.65;47.31;100941.19;5069015;28;20033;-63
2023/12/04 08:22:04;;;;;;;0.40;0.40;;;;;;;9.72;47.83;100939.25;5053999;28;20052;-62
2023/12/04 08:24:29;;;;;;;0.45;0.45;;;;;;;8.76;48.91;100937.69;5059339;28;20041;-61
2023/12/04 08:26:56;;;;;;;0.40;0.40;;;;;;;10.16;47.45;100938.34;5069366;28;20058;-62
2023/12/04 08:29:22;;;;;;;0.40;0.40;;;;;;;10.63;46.27;100938.47;5068675;28;20124;-62
2023/12/04 08:31:47;;;;;;;0.40;0.40;;;;;;;10.10;46.64;100936.53;5068557;28;20132;-63
2023/12/04 08:34:13;;;;;;;0.40;0.40;;;;;;;9.33;48.46;100934.97;5068442;28;20136;-61
2023/12/04 08:36:38;;;;;;;0.40;0.40;;;;;;;9.91;46.68;100927.56;5068763;28;20151;-63
2023/12/04 08:39:04;;;;;;;0.40;0.40;;;;;;;10.42;45.25;100920.09;5069296;28;20500;-63
2023/12/04 08:41:29;;;;;;;0.40;0.40;;;;;;;10.13;46.78;100928.84;5072648;28;20036;-62
2023/12/04 08:43:55;;;;;;;0.38;0.38;;;;;;;10.51;45.39;100921.44;5072530;28;20117;-62
2023/12/04 08:46:21;;;;;;;0.40;0.40;;;;;;;10.64;45.01;100915.13;5072346;28;20087;-63
2023/12/04 08:48:46;;;;;;;0.50;0.50;;;;;;;10.59;44.71;100921.16;5072483;28;20055;-61
2023/12/04 08:51:17;;;;;;;0.40;0.40;;;;;;;11.04;44.23;100927.06;5072630;28;20024;-62
2023/12/04 08:53:43;;;;;;;0.40;0.40;;;;;;;10.43;45.19;100926.31;5072694;28;20075;-61
2023/12/04 08:56:09;;;;;;;0.40;0.40;;;;;;;10.77;43.97;100920.34;5072491;28;20048;-62
2023/12/04 08:58:34;;;;;;;0.40;0.40;;;;;;;10.92;43.99;100928.84;5057999;28;20128;-61
2023/12/04 09:01:00;;;;;;;0.50;0.50;;;;;;;10.70;45.17;100930.34;5063873;28;20540;-63
2023/12/04 09:03:25;;;;;;;0.40;0.40;;;;;;;11.12;44.26;100939.38;5071407;28;20600;-60
2023/12/04 09:05:51;;;;;;;0.35;0.35;;;;;;;11.34;43.94;100911.75;5072298;28;20020;-62
2023/12/04 09:08:18;;;;;;;0.50;0.50;;;;;;;10.67;45.11;100928.13;5071673;28;20412;-62
2023/12/04 09:10:45;;;;;;;0.40;0.40;;;;;;;10.33;45.38;100924.13;5071791;28;20412;-62
2023/12/04 09:13:11;;;;;;;0.68;0.68;;;;;;;10.97;44.47;100926.31;5071743;28;20460;-62
2023/12/04 09:15:36;;;;;;;0.32;0.32;;;;;;;10.94;44.43;100916.00;5071782;28;20032;-60
2023/12/04 09:18:01;;;;;;;0.40;0.40;;;;;;;10.87;43.59;100922.53;5072154;28;20059;-61
2023/12/04 09:20:27;;;;;;;0.47;0.47;;;;;;;11.10;43.42;100925.31;5068428;28;20123;-61
2023/12/04 09:22:52;;;;;;;0.40;0.40;;;;;;;11.01;43.60;100922.13;5072035;28;20135;-60
2023/12/04 09:25:18;;;;;;;0.38;0.38;;;;;;;11.33;43.08;100922.72;5071857;28;20148;-61
2023/12/04 09:27:43;;;;;;;0.30;0.30;;;;;;;10.71;44.30;100918.56;5071826;28;20491;-61
2023/12/04 09:30:09;;;;;;;0.40;0.40;;;;;;;11.09;43.62;100918.28;5071735;28;20036;-61
2023/12/04 09:32:34;;;;;;;0.40;0.40;;;;;;;11.12;42.86;100924.06;5071488;28;20082;-61
2023/12/04 09:35:00;;;;;;;0.50;0.50;;;;;;;11.24;43.49;100916.03;5070944;28;20119;-62
2023/12/04 09:37:25;;;;;;;0.30;0.30;;;;;;;10.57;44.56;100914.38;5071091;28;20044;-62
2023/12/04 09:39:50;;;;;;;0.22;0.22;;;;;;;10.49;45.14;100915.50;5070779;28;20071;-62
2023/12/04 09:42:21;;;;;;;0.30;0.30;;;;;;;10.86;43.99;100912.78;5070812;28;20056;-62
2023/12/04 09:44:49;;;;;;;0.40;0.40;;;;;;;9.88;46.14;100916.44;5069798;28;20028;-61
2023/12/04 09:47:17;;;;;;;0.40;0.40;;;;;;;10.31;44.66;100911.94;5070927;28;20094;-62
2023/12/04 09:49:44;;;;;;;0.40;0.40;;;;;;;11.17;43.13;100910.75;5070618;28;20408;-61
2023/12/04 09:52:10;;;;;;;0.30;0.30;;;;;;;10.42;43.70;100906.66;5067308;28;20036;-61
2023/12/04 09:54:36;;;;;;;0.30;0.30;;;;;;;10.58;44.63;100902.56;5070969;28;20028;-61
2023/12/04 09:57:04;;;;;;;0.35;0.35;;;;;;;10.54;44.98;100898.69;5071837;28;20033;-61
2023/12/04 09:59:30;;;;;;;0.52;0.52;;;;;;;11.16;43.49;100903.72;5071237;28;20057;-61
2023/12/04 10:01:57;;;;;;;0.40;0.40;;;;;;;10.77;43.72;100903.41;5069928;28;20067;-62
2023/12/04 10:04:23;;;;;;;0.30;0.30;;;;;;;10.42;44.21;100897.78;5070489;28;20028;-61
2023/12/04 10:06:51;;;;;;;0.30;0.30;;;;;;;10.89;44.08;100894.34;5070777;28;20043;-62
2023/12/04 10:09:18;;;;;;;0.43;0.43;;;;;;;10.02;45.80;100897.34;5070777;28;20032;-61
2023/12/04 10:11:45;;;;;;;0.40;0.40;;;;;;;10.86;43.81;100892.13;5068599;28;20365;-61
2023/12/04 10:14:18;;;;;;;0.40;0.40;;;;;;;10.96;43.88;100888.91;5068660;28;20040;-61
2023/12/04 10:16:44;;;;;;;0.30;0.30;;;;;;;10.42;44.47;100887.84;5070700;28;20047;-62
2023/12/04 10:19:30;;;;;;;0.30;0.30;;;;;;;10.93;44.77;100879.41;5070756;28;20044;-61
2023/12/04 10:21:59;;;;;;;0.32;0.32;;;;;;;10.16;45.45;100872.00;5070639;28;20085;-62
2023/12/04 10:24:27;;;;;;;0.38;0.38;;;;;;;10.81;44.80;100872.34;5070016;28;20068;-62
2023/12/04 10:26:53;;;;;;;0.45;0.45;;;;;;;10.11;45.44;100869.19;5070694;28;20468;-62
2023/12/04 10:29:18;;;;;;;0.40;0.40;;;;;;;10.32;45.90;100862.53;5070532;28;20044;-63
2023/12/04 10:31:44;;;;;;;0.30;0.30;;;;;;;9.88;46.45;100854.72;5070401;28;20043;-63
2023/12/04 10:34:12;;;;;;;0.30;0.30;;;;;;;9.94;46.84;100864.56;5070518;28;20060;-62
2023/12/04 10:36:38;;;;;;;0.45;0.45;;;;;;;10.21;47.01;100845.31;5070343;28;20068;-63
2023/12/04 10:39:06;;;;;;;0.40;0.40;;;;;;;10.95;45.06;100844.22;5070373;28;20091;-63
2023/12/04 10:41:32;;;;;;;0.40;0.40;;;;;;;10.87;44.67;100839.97;5070312;28;20036;-60
2023/12/04 10:43:58;;;;;;;0.35;0.35;;;;;;;10.54;45.40;100835.03;5069349;28;20037;-60
2023/12/04 10:46:27;;;;;;;0.50;0.50;;;;;;;10.54;45.67;100839.56;5070117;28;20084;-63
2023/12/04 10:48:53;;;;;;;0.47;0.47;;;;;;;10.30;45.65;100835.91;5068423;28;20400;-62
2023/12/04 10:51:19;;;;;;;0.40;0.40;;;;;;;10.59;45.51;100837.84;5070072;28;20028;-61
2023/12/04 10:53:44;;;;;;;0.40;0.40;;;;;;;10.30;45.91;100830.56;5070368;28;20033;-60
2023/12/04 10:56:39;;;;;;;0.30;0.30;;;;;;;10.76;45.31;100824.63;5069743;28;20373;-60
2023/12/04 10:59:10;;;;;;;0.30;0.30;;;;;;;10.93;44.54;100822.16;5027196;28;20203;-62
2023/12/04 11:01:36;;;;;;;0.30;0.30;;;;;;;10.46;45.12;100818.38;5026583;28;20049;-61
2023/12/04 11:04:06;;;;;;;0.30;0.30;;;;;;;10.68;44.98;100814.19;5017819;28;20034;-62
2023/12/04 11:06:34;;;;;;;0.20;0.20;;;;;;;10.76;45.31;100811.19;5002538;28;20051;-62
2023/12/04 11:09:01;;;;;;;0.30;0.30;;;;;;;10.71;45.31;100813.75;5027090;28;20142;-61
2023/12/04 11:11:31;;;;;;;0.50;0.50;;;;;;;10.86;44.81;100811.47;5017934;28;20523;-60
2023/12/04 11:14:01;;;;;;;0.40;0.40;;;;;;;10.47;44.96;100801.22;5026639;28;20375;-61
2023/12/04 11:16:45;;;;;;;0.40;0.40;;;;;;;10.54;45.78;100804.66;5026664;28;20046;-61
2023/12/04 11:19:29;;;;;;;0.30;0.30;;;;;;;11.16;44.97;100803.41;5026284;28;20072;-61
2023/12/04 11:21:58;;;;;;;0.30;0.30;;;;;;;11.27;44.59;100798.03;5021632;28;20041;-61
2023/12/04 11:24:24;;;;;;;0.45;0.45;;;;;;;10.91;44.61;100792.78;5026469;28;20060;-60
2023/12/04 11:26:50;;;;;;;0.30;0.30;;;;;;;11.33;43.87;100790.91;5027464;28;20549;-61